Ana Sayfa
METAR-TAF:

METAR-TAF

Havaalanları :

Bahreyn, Bahreyn

Enlem: 26-16N, Boylam: 050-39E, yükseklik: 2 m

Güncel hava durumu gözlemi

Rapor saat 00:00 UTC de 14 dakika önce yapıldı.
Rüzgar batı/kuzeybatıdan 12 kt
Sıcaklık 21°C
Nem 69%
Basınç 1018 hPa
Görüş mesafesi 10 km veya daha fazla
1500 m altında bulut yok ve kümülonimbus yok

METAR: OBBI 210000Z 29012KT CAVOK 21/15 Q1018 NOSIG

Saat: 03:14 (00:14 UTC)

Tahmin

Rapor saat 23:00 UTC de 1 saat ve 14 dakika önce yapıldı.
Ayın 21'si saat 00 UTC'den ayın 22'si saat 06 UTC'ye kadar geçerli Tahmin
Rüzgar kuzeybatıdan 15 kt ve 25 kt'a kadar ani rüzgarlar
Görüş mesafesi 10 km veya daha fazla
3000 ft yükseklikte az bulutlu
Dönüşüyor
ayın 21'si saat 15 UTC'den ayın 21'si saat 17 UTC'ye kadar
Rüzgar batı/kuzeybatıdan 12 kt

TAF: OBBI 202300Z 2100/2206 32015G25KT 9999 FEW030 BECMG 2115/2117 30012KT

4.000'den fazla havaalanı için hava durumu gözlemleri ve tahminleri (METAR ve TAF raporları).

Kullanılabilir istasyonlar harita üzerinde sarı ve kırmızı noktalarla gösterilir.

İstasyonun adını görmek için fareyi noktanın üzerinde gezdirin.

Sonrasında hava gözlem ve tahminlerini görmek için tıklayın.

Haritayı değiştirmek için: yaklaştırmak için siyah artı işaretli yeşil düğmeye ve uzaklaştırmak için de eksi işaretli düğmeye hızla tıklayın; bitişik haritalar için yeşil okları kullanın.


METAR-TAF: